Welcome to Bucharest LROP 280230Z 35006KT CAVOK 11/09 Q1020 R88/19//95 NOSIG

Down the Danube 6

63

arrivals

43

departures

16z-22z

6 hours full ATC

 

Please note!

This website is intended for flight simulation only. Information presented here should not be used in real life flight situations.